createdAt,value
2022-11-17T00:01:53.880Z,98866.56
2022-11-17T00:04:20.579Z,98874.44
2022-11-17T00:06:47.096Z,98873.75
2022-11-17T00:09:17.691Z,98877.56
2022-11-17T00:12:03.984Z,98870.41
2022-11-17T00:14:33.661Z,98863.03
2022-11-17T00:17:01.225Z,98874.06
2022-11-17T00:19:46.623Z,98876.06
2022-11-17T00:22:13.329Z,98874.38
2022-11-17T00:24:39.988Z,98871.69
2022-11-17T00:27:06.646Z,98874.22
2022-11-17T00:29:37.380Z,98871.69
2022-11-17T00:32:24.943Z,98882.56
2022-11-17T00:34:51.422Z,98880.88
2022-11-17T00:37:18.012Z,98872.31
2022-11-17T00:39:44.512Z,98868.81
2022-11-17T00:42:10.998Z,98866.81
2022-11-17T00:44:37.499Z,98860.84
2022-11-17T00:47:03.998Z,98864.50
2022-11-17T00:49:30.512Z,98861.84
2022-11-17T00:51:57.760Z,98866.88
2022-11-17T00:54:24.669Z,98867.03
2022-11-17T00:56:51.412Z,98861.50
2022-11-17T00:59:18.096Z,98857.47
2022-11-17T01:01:45.129Z,98860.84
2022-11-17T01:04:13.324Z,98853.13
2022-11-17T01:06:45.262Z,98850.88
2022-11-17T01:09:30.240Z,98842.19
2022-11-17T01:11:56.632Z,98842.03
2022-11-17T01:14:26.136Z,98841.84
2022-11-17T01:16:53.731Z,98833.69
2022-11-17T01:19:21.958Z,98825.22
2022-11-17T01:21:48.934Z,98817.84
2022-11-17T01:24:16.848Z,98818.84
2022-11-17T01:26:45.127Z,98816.31
2022-11-17T01:29:13.957Z,98819.28
2022-11-17T01:31:43.520Z,98818.94
2022-11-17T01:34:10.572Z,98821.44
2022-11-17T01:36:58.453Z,98823.44
2022-11-17T01:39:26.400Z,98826.97
2022-11-17T01:41:54.016Z,98819.25
2022-11-17T01:44:43.864Z,98817.56
2022-11-17T01:47:30.496Z,98825.75
2022-11-17T01:50:06.911Z,98820.25
2022-11-17T01:52:36.165Z,98826.41
2022-11-17T01:55:03.781Z,98826.75
2022-11-17T01:57:41.201Z,98841.13
2022-11-17T02:00:10.542Z,98828.56
2022-11-17T02:02:39.366Z,98839.13
2022-11-17T02:05:05.944Z,98836.59
2022-11-17T02:07:36.561Z,98841.94
2022-11-17T02:10:05.194Z,98839.78
2022-11-17T02:12:33.758Z,98841.66
2022-11-17T02:15:01.261Z,98845.31
2022-11-17T02:17:35.033Z,98848.81
2022-11-17T02:20:07.697Z,98848.81
2022-11-17T02:22:52.167Z,98854.31
2022-11-17T02:25:33.894Z,98834.63
2022-11-17T02:28:09.494Z,98834.28
2022-11-17T02:31:00.268Z,98824.81
2022-11-17T02:33:59.998Z,98828.31
2022-11-17T02:36:47.350Z,98822.97
2022-11-17T02:39:25.163Z,98815.09
2022-11-17T02:42:16.265Z,98815.72
2022-11-17T02:45:02.966Z,98820.53
2022-11-17T02:47:32.849Z,98810.44
2022-11-17T02:50:05.151Z,98804.72
2022-11-17T02:52:31.773Z,98804.19
2022-11-17T02:55:06.700Z,98806.19
2022-11-17T02:57:35.651Z,98813.97
2022-11-17T03:00:10.842Z,98813.28
2022-11-17T03:02:40.142Z,98814.59
2022-11-17T03:05:17.061Z,98813.38
2022-11-17T03:08:07.872Z,98798.59
2022-11-17T03:10:34.321Z,98794.41
2022-11-17T03:13:20.855Z,98792.19
2022-11-17T03:16:05.161Z,98791.56
2022-11-17T03:19:09.024Z,98788.34
2022-11-17T03:21:45.217Z,98788.50
2022-11-17T03:24:20.743Z,98778.81
2022-11-17T03:26:53.442Z,98774.78
2022-11-17T03:29:25.198Z,98767.19
2022-11-17T03:31:58.450Z,98773.28
2022-11-17T03:34:29.260Z,98771.31
2022-11-17T03:37:09.451Z,98777.66
2022-11-17T03:39:45.262Z,98787.22
2022-11-17T03:42:24.573Z,98795.13
2022-11-17T03:44:54.945Z,98797.84
2022-11-17T03:47:25.243Z,98820.50
2022-11-17T03:49:59.133Z,98826.84
2022-11-17T03:52:27.010Z,98837.38
2022-11-17T03:54:53.638Z,98829.66
2022-11-17T03:57:33.124Z,98845.44
2022-11-17T04:00:04.956Z,98836.88
2022-11-17T04:02:31.688Z,98849.66
2022-11-17T04:05:07.029Z,98854.03
2022-11-17T04:07:36.603Z,98841.50
2022-11-17T04:10:05.177Z,98845.44
2022-11-17T04:12:50.203Z,98840.94
2022-11-17T04:15:35.100Z,98838.25
2022-11-17T04:18:01.708Z,98832.78
2022-11-17T04:20:35.831Z,98832.69
2022-11-17T04:23:23.099Z,98830.53
2022-11-17T04:26:10.578Z,98829.41
2022-11-17T04:28:40.496Z,98841.91
2022-11-17T04:31:16.496Z,98844.44
2022-11-17T04:33:48.398Z,98845.59
2022-11-17T04:36:17.945Z,98832.91
2022-11-17T04:38:46.984Z,98833.75
2022-11-17T04:41:41.427Z,98824.06
2022-11-17T04:44:09.419Z,98835.75
2022-11-17T04:46:36.951Z,98838.25
2022-11-17T04:49:04.630Z,98838.13
2022-11-17T04:51:31.951Z,98853.88
2022-11-17T04:53:58.892Z,98857.22
2022-11-17T04:56:25.927Z,98855.94
2022-11-17T04:58:52.540Z,98858.06
2022-11-17T05:01:19.829Z,98858.16
2022-11-17T05:03:57.769Z,98866.19
2022-11-17T05:06:32.080Z,98863.91
2022-11-17T05:09:00.706Z,98856.19
2022-11-17T05:11:47.834Z,98852.38
2022-11-17T05:14:16.597Z,98859.56
2022-11-17T05:17:08.463Z,98860.53
2022-11-17T05:19:41.079Z,98859.16
2022-11-17T05:22:27.961Z,98863.06
2022-11-17T05:24:55.113Z,98871.78
2022-11-17T05:27:22.837Z,98868.13
2022-11-17T05:29:49.601Z,98871.94
2022-11-17T05:32:16.499Z,98864.91
2022-11-17T05:34:43.087Z,98859.94
2022-11-17T05:37:09.825Z,98861.47
2022-11-17T05:39:36.388Z,98865.00
2022-11-17T05:42:03.449Z,98862.19
2022-11-17T05:44:29.944Z,98864.56
2022-11-17T05:46:56.466Z,98864.41
2022-11-17T05:49:24.034Z,98859.19
2022-11-17T05:51:52.862Z,98867.22
2022-11-17T05:54:20.036Z,98866.41
2022-11-17T05:57:04.532Z,98875.25
2022-11-17T05:59:45.572Z,98888.47
2022-11-17T06:02:17.255Z,98896.34
2022-11-17T06:04:43.921Z,98886.47
2022-11-17T06:07:11.162Z,98892.53
2022-11-17T06:09:41.412Z,98895.91
2022-11-17T06:12:08.277Z,98886.06
2022-11-17T06:14:35.700Z,98890.25
2022-11-17T06:17:08.825Z,98885.31
2022-11-17T06:19:43.990Z,98887.28
2022-11-17T06:22:12.803Z,98885.31
2022-11-17T06:24:41.948Z,98888.38
2022-11-17T06:27:09.552Z,98893.72
2022-11-17T06:29:39.486Z,98893.44
2022-11-17T06:32:09.430Z,98883.41
2022-11-17T06:34:36.118Z,98892.53
2022-11-17T06:37:02.615Z,98889.56
2022-11-17T06:39:29.092Z,98896.44
2022-11-17T06:41:55.598Z,98897.44
2022-11-17T06:44:22.064Z,98896.56
2022-11-17T06:46:49.332Z,98908.00
2022-11-17T06:49:16.117Z,98905.47
2022-11-17T06:51:45.421Z,98902.94
2022-11-17T06:54:14.715Z,98921.66
2022-11-17T06:56:42.631Z,98923.47
2022-11-17T06:59:09.205Z,98927.13
2022-11-17T07:01:37.252Z,98941.22
2022-11-17T07:04:04.055Z,98920.66
2022-11-17T07:06:30.804Z,98924.03
2022-11-17T07:08:57.385Z,98922.50
2022-11-17T07:11:23.932Z,98936.56
2022-11-17T07:13:50.467Z,98929.94
2022-11-17T07:16:23.525Z,98929.19
2022-11-17T07:18:50.716Z,98907.47
2022-11-17T07:21:18.044Z,98910.22
2022-11-17T07:23:47.473Z,98915.53
2022-11-17T07:26:14.426Z,98918.34
2022-11-17T07:28:41.303Z,98922.50
2022-11-17T07:31:09.109Z,98916.88
2022-11-17T07:33:36.750Z,98925.22
2022-11-17T07:36:09.505Z,98916.34
2022-11-17T07:38:37.951Z,98922.75
2022-11-17T07:41:05.644Z,98921.59
2022-11-17T07:43:33.640Z,98919.44
2022-11-17T07:46:07.874Z,98920.06
2022-11-17T07:48:35.057Z,98929.13
2022-11-17T07:51:03.275Z,98932.28
2022-11-17T07:53:31.618Z,98938.34
2022-11-17T07:56:03.483Z,98927.34
2022-11-17T07:58:30.524Z,98929.94
2022-11-17T08:00:57.093Z,98917.53
2022-11-17T08:03:24.429Z,98914.69
2022-11-17T08:05:51.085Z,98920.16
2022-11-17T08:08:17.604Z,98911.31
2022-11-17T08:10:44.191Z,98907.47
2022-11-17T08:13:11.490Z,98908.00
2022-11-17T08:15:38.083Z,98910.41
2022-11-17T08:18:04.698Z,98917.66
2022-11-17T08:20:31.289Z,98926.97
2022-11-17T08:22:57.852Z,98928.19
2022-11-17T08:25:26.377Z,98932.19
2022-11-17T08:27:58.004Z,98934.22
2022-11-17T08:30:25.779Z,98948.38
2022-11-17T08:32:54.484Z,98933.22
2022-11-17T08:35:24.632Z,98938.66
2022-11-17T08:37:51.623Z,98946.72
2022-11-17T08:40:19.887Z,98939.28
2022-11-17T08:42:47.500Z,98945.16
2022-11-17T08:45:14.580Z,98939.41
2022-11-17T08:47:41.267Z,98950.28
2022-11-17T08:50:08.707Z,98949.31
2022-11-17T08:52:35.408Z,98955.66
2022-11-17T08:55:02.776Z,98963.03
2022-11-17T08:57:30.585Z,98969.19
2022-11-17T08:59:57.475Z,98968.50
2022-11-17T09:02:24.562Z,98963.81
2022-11-17T09:04:51.204Z,98965.16
2022-11-17T09:07:18.320Z,98972.91
2022-11-17T09:09:46.404Z,98975.41
2022-11-17T09:12:13.044Z,98973.88
2022-11-17T09:14:39.593Z,99001.13
2022-11-17T09:17:06.215Z,98980.94
2022-11-17T09:19:32.844Z,98979.19
2022-11-17T09:21:59.876Z,98979.03
2022-11-17T09:24:26.787Z,98994.31
2022-11-17T09:26:54.700Z,98996.47
2022-11-17T09:29:21.894Z,98995.19
2022-11-17T09:31:48.625Z,98997.69
2022-11-17T09:34:17.066Z,98984.09
2022-11-17T09:36:43.797Z,98977.53
2022-11-17T09:39:10.542Z,98966.06
2022-11-17T09:41:40.027Z,98960.09
2022-11-17T09:44:11.051Z,98959.56
2022-11-17T09:46:46.595Z,98967.94
2022-11-17T09:49:33.075Z,98958.34
2022-11-17T09:52:04.785Z,98954.88
2022-11-17T09:54:51.111Z,98962.66
2022-11-17T09:57:34.523Z,98950.69
2022-11-17T10:00:14.863Z,98955.31
2022-11-17T10:02:42.926Z,98973.31
2022-11-17T10:05:20.828Z,98958.66
2022-11-17T10:07:50.229Z,98961.28
2022-11-17T10:10:21.772Z,98965.22
2022-11-17T10:12:55.899Z,98953.78
2022-11-17T10:15:30.794Z,98956.69
2022-11-17T10:17:57.310Z,98958.66
2022-11-17T10:20:23.921Z,98954.03
2022-11-17T10:22:54.031Z,98970.09
2022-11-17T10:25:41.933Z,98957.03
2022-11-17T10:28:24.285Z,98946.97
2022-11-17T10:31:03.171Z,98951.16
2022-11-17T10:33:44.226Z,98966.06
2022-11-17T10:36:14.323Z,98967.66
2022-11-17T10:38:48.780Z,98969.03
2022-11-17T10:41:19.331Z,98968.31
2022-11-17T10:43:58.140Z,98957.03
2022-11-17T10:46:24.732Z,98969.97
2022-11-17T10:49:07.035Z,98971.06
2022-11-17T10:51:35.664Z,98980.38
2022-11-17T10:54:17.360Z,98979.31
2022-11-17T10:56:54.621Z,98985.78
2022-11-17T10:59:30.018Z,98987.44
2022-11-17T11:01:56.767Z,98984.88
2022-11-17T11:04:33.375Z,98984.63
2022-11-17T11:07:19.273Z,98975.25
2022-11-17T11:09:48.822Z,98973.81
2022-11-17T11:12:20.983Z,98974.34
2022-11-17T11:14:53.775Z,98973.59
2022-11-17T11:17:20.446Z,98971.47
2022-11-17T11:19:54.090Z,98960.47
2022-11-17T11:22:35.715Z,98962.78
2022-11-17T11:25:16.465Z,98970.59
2022-11-17T11:28:08.700Z,98966.34
2022-11-17T11:30:47.404Z,98975.63
2022-11-17T11:33:35.887Z,98976.81
2022-11-17T11:36:36.992Z,98987.75
2022-11-17T11:39:15.263Z,98979.50
2022-11-17T11:42:24.330Z,98976.78
2022-11-17T11:45:12.229Z,98977.41
2022-11-17T11:47:56.776Z,98971.19
2022-11-17T11:50:26.669Z,98968.25
2022-11-17T11:53:16.912Z,98967.78
2022-11-17T11:55:48.177Z,98959.91
2022-11-17T11:58:21.334Z,98962.19
2022-11-17T12:00:52.670Z,98967.84
2022-11-17T12:03:33.843Z,98960.28
2022-11-17T12:06:38.111Z,98963.94
2022-11-17T12:09:13.731Z,98955.84
2022-11-17T12:12:00.521Z,98964.09
2022-11-17T12:14:32.451Z,98968.09
2022-11-17T12:17:13.845Z,98964.19
2022-11-17T12:19:50.754Z,98958.69
2022-11-17T12:22:26.348Z,98956.63
2022-11-17T12:24:57.483Z,98960.22
2022-11-17T12:27:36.030Z,98963.38
2022-11-17T12:30:05.272Z,98970.91
2022-11-17T12:32:44.041Z,98975.47
2022-11-17T12:35:19.773Z,98970.31
2022-11-17T12:37:46.403Z,98974.44
2022-11-17T12:40:54.762Z,98976.88
2022-11-17T12:43:23.636Z,98975.16
2022-11-17T12:45:55.870Z,98974.13
2022-11-17T12:48:35.142Z,98971.84
2022-11-17T12:51:43.313Z,98973.22
2022-11-17T12:54:24.526Z,98968.22
2022-11-17T12:57:03.797Z,98959.53
2022-11-17T12:59:30.235Z,98960.41
2022-11-17T13:02:15.509Z,98960.53
2022-11-17T13:04:58.604Z,98958.69
2022-11-17T13:07:26.698Z,98959.75
2022-11-17T13:09:57.269Z,98964.06
2022-11-17T13:12:28.826Z,98968.44
2022-11-17T13:14:57.476Z,98975.16
2022-11-17T13:17:30.754Z,98988.19
2022-11-17T13:19:59.510Z,98985.94
2022-11-17T13:22:26.599Z,98984.53
2022-11-17T13:24:53.975Z,98986.69
2022-11-17T13:27:29.557Z,98978.91
2022-11-17T13:30:14.963Z,98985.19
2022-11-17T13:32:42.654Z,98994.72
2022-11-17T13:35:38.426Z,98988.41
2022-11-17T13:38:24.410Z,98990.00
2022-11-17T13:40:53.422Z,98996.13
2022-11-17T13:43:22.159Z,99002.66
2022-11-17T13:45:53.387Z,99009.38
2022-11-17T13:48:40.328Z,99008.34
2022-11-17T13:51:29.347Z,99007.31
2022-11-17T13:54:06.797Z,99009.31
2022-11-17T13:56:40.720Z,99008.94
2022-11-17T13:59:38.702Z,99003.03
2022-11-17T14:02:17.165Z,99002.97
2022-11-17T14:05:14.220Z,99002.53
2022-11-17T14:07:42.740Z,99001.88
2022-11-17T14:10:15.364Z,99004.63
2022-11-17T14:12:42.371Z,99002.44
2022-11-17T14:15:31.658Z,99004.75
2022-11-17T14:18:00.120Z,98999.09
2022-11-17T14:20:36.368Z,98989.25
2022-11-17T14:23:04.391Z,98989.53
2022-11-17T14:25:34.775Z,98983.69
2022-11-17T14:28:01.599Z,98986.22
2022-11-17T14:30:28.285Z,98981.38
2022-11-17T14:32:58.284Z,98977.63
2022-11-17T14:35:30.199Z,98980.72
2022-11-17T14:37:56.912Z,98991.28
2022-11-17T14:40:23.446Z,98998.19
2022-11-17T14:42:49.939Z,99005.00
2022-11-17T14:45:19.316Z,99009.44
2022-11-17T14:47:45.955Z,99005.88
2022-11-17T14:50:15.799Z,99011.66
2022-11-17T14:52:43.798Z,99009.44
2022-11-17T14:55:12.254Z,99009.47
2022-11-17T14:57:39.595Z,99000.56
2022-11-17T15:00:08.488Z,99001.47
2022-11-17T15:02:36.405Z,99002.50
2022-11-17T15:05:03.651Z,99000.03
2022-11-17T15:07:30.287Z,99002.03
2022-11-17T15:09:57.368Z,98993.19
2022-11-17T15:12:23.988Z,99004.34
2022-11-17T15:14:50.597Z,99003.88
2022-11-17T15:17:17.334Z,99003.75
2022-11-17T15:19:44.029Z,99002.78
2022-11-17T15:22:10.955Z,99000.59
2022-11-17T15:24:37.534Z,99001.28
2022-11-17T15:27:04.257Z,99013.41
2022-11-17T15:29:30.762Z,99014.75
2022-11-17T15:31:57.286Z,99016.59
2022-11-17T15:34:23.800Z,99018.94
2022-11-17T15:36:50.299Z,99026.72
2022-11-17T15:39:17.396Z,99019.31
2022-11-17T15:41:44.959Z,99006.03
2022-11-17T15:44:11.446Z,99010.03
2022-11-17T15:46:39.656Z,99004.50
2022-11-17T15:49:09.458Z,98999.13
2022-11-17T15:51:36.126Z,98994.59
2022-11-17T15:54:03.038Z,98991.94
2022-11-17T15:56:33.727Z,98982.69
2022-11-17T15:59:03.156Z,98987.53
2022-11-17T16:01:34.672Z,98990.22
2022-11-17T16:04:12.502Z,99003.34
2022-11-17T16:06:41.441Z,98994.75
2022-11-17T16:09:09.559Z,98990.06
2022-11-17T16:11:37.121Z,98993.59
2022-11-17T16:14:05.281Z,98992.75
2022-11-17T16:16:35.520Z,98984.34
2022-11-17T16:19:02.457Z,98995.28
2022-11-17T16:21:29.294Z,98975.44
2022-11-17T16:23:57.768Z,98974.63
2022-11-17T16:26:26.436Z,98969.06
2022-11-17T16:29:00.405Z,98972.59
2022-11-17T16:31:31.268Z,98983.34
2022-11-17T16:34:03.074Z,98983.34
2022-11-17T16:36:36.238Z,98987.53
2022-11-17T16:39:05.724Z,99000.31
2022-11-17T16:41:38.304Z,99009.88
2022-11-17T16:44:16.375Z,99022.31
2022-11-17T16:46:45.210Z,99035.94
2022-11-17T16:49:14.301Z,99042.66
2022-11-17T16:51:41.420Z,99042.16
2022-11-17T16:54:12.461Z,99049.03
2022-11-17T16:56:39.294Z,99037.13
2022-11-17T16:59:05.818Z,99032.56
2022-11-17T17:01:34.683Z,99046.50
2022-11-17T17:04:04.055Z,99057.91
2022-11-17T17:06:31.210Z,99063.09
2022-11-17T17:09:00.437Z,99058.03
2022-11-17T17:11:29.196Z,99060.91
2022-11-17T17:13:58.495Z,99065.13
2022-11-17T17:16:25.824Z,99056.72
2022-11-17T17:19:00.542Z,99063.75
2022-11-17T17:21:28.982Z,99052.00
2022-11-17T17:23:55.828Z,99044.13
2022-11-17T17:26:24.579Z,99043.28
2022-11-17T17:28:54.071Z,99048.34
2022-11-17T17:31:22.563Z,99044.63
2022-11-17T17:33:52.030Z,99056.56
2022-11-17T17:36:21.485Z,99056.03
2022-11-17T17:38:54.590Z,99053.66
2022-11-17T17:41:23.111Z,99049.16
2022-11-17T17:44:01.394Z,99048.44
2022-11-17T17:46:31.529Z,99054.69
2022-11-17T17:48:58.781Z,99045.75
2022-11-17T17:51:27.674Z,99049.97
2022-11-17T17:53:57.933Z,99039.41
2022-11-17T17:56:24.613Z,99044.94
2022-11-17T17:58:51.897Z,99045.44
2022-11-17T18:01:22.752Z,99045.94
2022-11-17T18:03:51.028Z,99045.44
2022-11-17T18:06:19.579Z,99050.13
2022-11-17T18:08:46.659Z,99044.59
2022-11-17T18:11:18.989Z,99048.44
2022-11-17T18:13:50.386Z,99050.47
2022-11-17T18:16:21.556Z,99053.31
2022-11-17T18:18:48.659Z,99055.13
2022-11-17T18:21:17.956Z,99049.09
2022-11-17T18:23:45.353Z,99045.41
2022-11-17T18:26:16.628Z,99042.34
2022-11-17T18:28:45.115Z,99036.31
2022-11-17T18:31:11.811Z,99036.31
2022-11-17T18:33:38.494Z,99032.63
2022-11-17T18:36:07.242Z,99028.41
2022-11-17T18:38:36.125Z,99022.19
2022-11-17T18:41:04.603Z,99030.91
2022-11-17T18:43:31.964Z,99017.66
2022-11-17T18:46:03.547Z,99020.34
2022-11-17T18:48:35.118Z,99012.44
2022-11-17T18:51:19.207Z,99012.09
2022-11-17T18:53:47.566Z,99017.63
2022-11-17T18:56:17.443Z,99016.09
2022-11-17T18:58:44.304Z,99016.28
2022-11-17T19:01:33.864Z,99020.78
2022-11-17T19:04:01.127Z,99021.66
2022-11-17T19:06:28.175Z,99025.50
2022-11-17T19:08:54.935Z,99023.47
2022-11-17T19:11:22.730Z,99021.59
2022-11-17T19:13:50.005Z,99028.63
2022-11-17T19:16:19.548Z,99021.59
2022-11-17T19:18:48.386Z,99024.28
2022-11-17T19:21:18.331Z,99006.50
2022-11-17T19:23:51.435Z,99014.41
2022-11-17T19:26:24.052Z,99003.81
2022-11-17T19:28:50.852Z,99007.16
2022-11-17T19:31:20.453Z,98998.97
2022-11-17T19:33:48.415Z,99005.00
2022-11-17T19:36:26.619Z,99009.69
2022-11-17T19:38:55.996Z,99002.97
2022-11-17T19:41:31.555Z,98997.78
2022-11-17T19:44:00.118Z,99013.19
2022-11-17T19:46:28.298Z,99004.09
2022-11-17T19:48:56.166Z,98996.72
2022-11-17T19:51:29.135Z,98979.09
2022-11-17T19:53:57.739Z,98971.91
2022-11-17T19:56:25.771Z,98977.41
2022-11-17T19:58:53.750Z,98991.69
2022-11-17T20:01:24.487Z,99003.09
2022-11-17T20:03:51.463Z,98993.72
2022-11-17T20:06:20.831Z,98997.78
2022-11-17T20:08:48.444Z,99007.50
2022-11-17T20:11:20.692Z,98994.56
2022-11-17T20:13:47.782Z,99009.31
2022-11-17T20:16:20.024Z,98998.25
2022-11-17T20:18:50.897Z,99005.31
2022-11-17T20:21:18.506Z,98987.50
2022-11-17T20:23:45.844Z,98945.06
2022-11-17T20:26:23.978Z,98965.66
2022-11-17T20:28:51.059Z,99011.78
2022-11-17T20:31:19.478Z,99012.44
2022-11-17T20:33:47.199Z,99015.59
2022-11-17T20:36:21.438Z,99019.44
2022-11-17T20:38:52.085Z,99017.91
2022-11-17T20:41:20.836Z,99022.25
2022-11-17T20:43:49.483Z,99028.75
2022-11-17T20:46:16.159Z,99019.56
2022-11-17T20:48:42.828Z,99019.41
2022-11-17T20:51:15.094Z,99031.81
2022-11-17T20:53:41.836Z,99025.94
2022-11-17T20:56:10.058Z,99031.44
2022-11-17T20:58:37.254Z,99021.38
2022-11-17T21:01:14.987Z,99023.44
2022-11-17T21:03:42.271Z,99015.22
2022-11-17T21:06:09.299Z,99008.84
2022-11-17T21:08:37.746Z,99018.66
2022-11-17T21:11:06.955Z,99003.19
2022-11-17T21:13:35.395Z,99013.69
2022-11-17T21:16:15.306Z,99004.75
2022-11-17T21:18:47.204Z,99014.28
2022-11-17T21:21:14.378Z,99004.16
2022-11-17T21:23:42.063Z,99018.41
2022-11-17T21:26:14.039Z,99007.16
2022-11-17T21:28:41.214Z,99001.56
2022-11-17T21:31:11.846Z,99003.84
2022-11-17T21:33:38.694Z,99007.63
2022-11-17T21:36:11.030Z,99029.22
2022-11-17T21:38:38.228Z,99027.16
2022-11-17T21:41:16.933Z,99024.34
2022-11-17T21:43:45.183Z,99020.66
2022-11-17T21:46:14.949Z,99019.97
2022-11-17T21:48:41.860Z,99021.25
2022-11-17T21:51:15.327Z,99001.84
2022-11-17T21:53:42.107Z,98985.09
2022-11-17T21:56:08.943Z,98986.06
2022-11-17T21:58:35.687Z,98996.25
2022-11-17T22:01:14.376Z,99004.41
2022-11-17T22:03:42.580Z,98999.38
2022-11-17T22:06:18.189Z,99004.06
2022-11-17T22:08:45.584Z,99002.97
2022-11-17T22:11:15.308Z,99002.13
2022-11-17T22:13:42.845Z,99000.91
2022-11-17T22:16:13.984Z,99010.25
2022-11-17T22:18:41.485Z,99010.84
2022-11-17T22:21:09.577Z,99007.47
2022-11-17T22:23:54.740Z,98999.59
2022-11-17T22:26:21.360Z,98994.53
2022-11-17T22:28:53.110Z,99001.03
2022-11-17T22:31:21.987Z,98992.94
2022-11-17T22:33:49.917Z,98988.72
2022-11-17T22:36:17.282Z,98992.53
2022-11-17T22:38:44.781Z,98985.47
2022-11-17T22:41:12.720Z,98977.09
2022-11-17T22:43:39.381Z,98984.84
2022-11-17T22:46:09.658Z,98979.56
2022-11-17T22:48:37.643Z,98980.03
2022-11-17T22:51:05.437Z,98983.38
2022-11-17T22:53:33.093Z,98979.84
2022-11-17T22:56:07.787Z,98966.06
2022-11-17T22:58:34.204Z,98971.59
2022-11-17T23:01:05.889Z,98959.94
2022-11-17T23:03:32.978Z,98964.59
2022-11-17T23:06:04.403Z,98951.22
2022-11-17T23:08:31.971Z,98958.56
2022-11-17T23:11:34.854Z,98962.22
2022-11-17T23:13:49.416Z,98956.88
2022-11-17T23:16:15.947Z,98970.53
2022-11-17T23:18:42.520Z,98964.44
2022-11-17T23:21:10.997Z,98964.78
2022-11-17T23:23:40.246Z,98963.13
2022-11-17T23:26:09.933Z,98953.03
2022-11-17T23:28:40.797Z,98955.59
2022-11-17T23:31:11.620Z,98960.66
2022-11-17T23:33:43.366Z,98961.78
2022-11-17T23:36:18.723Z,98968.56
2022-11-17T23:38:45.826Z,98971.22
2022-11-17T23:41:14.828Z,98958.56
2022-11-17T23:43:42.315Z,98954.31
2022-11-17T23:46:16.959Z,98960.06
2022-11-17T23:48:43.659Z,98960.50
2022-11-17T23:51:12.771Z,98959.66
2022-11-17T23:53:39.393Z,98949.94
2022-11-17T23:56:06.939Z,98949.69
2022-11-17T23:58:33.599Z,98948.16
